createdAt,value
2018-05-10T00:00:31.689Z,13.88
2018-05-10T00:02:57.563Z,14.05
2018-05-10T00:05:23.401Z,14.07
2018-05-10T00:07:49.315Z,14.11
2018-05-10T00:10:15.085Z,14.14
2018-05-10T00:12:40.934Z,14.37
2018-05-10T00:15:06.790Z,14.07
2018-05-10T00:17:32.652Z,13.47
2018-05-10T00:19:58.526Z,13.41
2018-05-10T00:22:24.384Z,13.13
2018-05-10T00:24:50.243Z,13.07
2018-05-10T00:27:16.092Z,13.31
2018-05-10T00:29:41.948Z,13.23
2018-05-10T00:32:07.880Z,12.91
2018-05-10T00:34:33.758Z,13.29
2018-05-10T00:36:59.620Z,13.39
2018-05-10T00:39:25.492Z,13.38
2018-05-10T00:41:51.346Z,13.47
2018-05-10T00:44:17.204Z,13.14
2018-05-10T00:46:43.073Z,13.34
2018-05-10T00:49:08.940Z,13.41
2018-05-10T00:51:34.788Z,13.23
2018-05-10T00:54:00.725Z,13.07
2018-05-10T00:56:26.580Z,12.58
2018-05-10T00:58:52.393Z,13.10
2018-05-10T01:01:18.240Z,13.07
2018-05-10T01:03:44.073Z,12.87
2018-05-10T01:06:09.941Z,12.69
2018-05-10T01:08:35.784Z,12.47
2018-05-10T01:11:01.634Z,12.73
2018-05-10T01:13:27.514Z,12.90
2018-05-10T01:15:53.394Z,12.98
2018-05-10T01:18:19.240Z,12.93
2018-05-10T01:20:45.106Z,12.44
2018-05-10T01:23:11.005Z,12.82
2018-05-10T01:25:36.849Z,12.87
2018-05-10T01:28:02.762Z,12.83
2018-05-10T01:30:28.615Z,13.00
2018-05-10T01:32:54.465Z,12.99
2018-05-10T01:35:32.592Z,12.72
2018-05-10T01:37:58.484Z,12.31
2018-05-10T01:40:24.392Z,12.22
2018-05-10T01:42:50.248Z,11.70
2018-05-10T01:45:16.087Z,12.00
2018-05-10T01:47:41.963Z,12.06
2018-05-10T01:50:07.805Z,12.36
2018-05-10T01:52:33.653Z,12.39
2018-05-10T01:54:59.532Z,12.37
2018-05-10T01:57:25.364Z,12.53
2018-05-10T01:59:51.225Z,12.40
2018-05-10T02:02:17.081Z,12.47
2018-05-10T02:04:42.945Z,12.47
2018-05-10T02:07:08.842Z,12.51
2018-05-10T02:09:34.716Z,12.14
2018-05-10T02:12:00.612Z,11.76
2018-05-10T02:14:26.500Z,11.98
2018-05-10T02:16:52.370Z,11.83
2018-05-10T02:19:18.221Z,11.62
2018-05-10T02:21:44.109Z,11.34
2018-05-10T02:24:09.963Z,11.29
2018-05-10T02:26:35.828Z,11.58
2018-05-10T02:29:01.677Z,11.57
2018-05-10T02:31:27.514Z,11.61
2018-05-10T02:33:53.418Z,11.52
2018-05-10T02:36:19.355Z,11.40
2018-05-10T02:38:45.149Z,11.04
2018-05-10T02:41:10.995Z,11.15
2018-05-10T02:43:36.848Z,11.31
2018-05-10T02:46:02.723Z,11.50
2018-05-10T02:48:28.603Z,11.70
2018-05-10T02:50:54.492Z,11.62
2018-05-10T02:53:20.372Z,11.51
2018-05-10T02:55:46.228Z,11.61
2018-05-10T02:58:12.104Z,11.57
2018-05-10T03:00:38.006Z,11.64
2018-05-10T03:03:03.879Z,11.49
2018-05-10T03:05:29.701Z,11.30
2018-05-10T03:07:55.553Z,11.03
2018-05-10T03:10:21.408Z,11.44
2018-05-10T03:12:47.254Z,11.37
2018-05-10T03:15:13.116Z,11.23
2018-05-10T03:17:38.966Z,11.59
2018-05-10T03:20:04.860Z,11.64
2018-05-10T03:22:30.717Z,11.45
2018-05-10T03:24:56.573Z,11.50
2018-05-10T03:27:22.426Z,11.64
2018-05-10T03:29:48.285Z,11.63
2018-05-10T03:32:14.140Z,11.25
2018-05-10T03:34:39.992Z,10.80
2018-05-10T03:37:05.831Z,10.40
2018-05-10T03:39:31.686Z,10.22
2018-05-10T03:41:57.549Z,10.59
2018-05-10T03:44:23.443Z,11.00
2018-05-10T03:46:49.325Z,11.17
2018-05-10T03:49:15.204Z,11.33
2018-05-10T03:51:41.096Z,11.48
2018-05-10T03:54:06.970Z,11.58
2018-05-10T03:56:32.821Z,11.10
2018-05-10T03:58:58.642Z,11.35
2018-05-10T04:01:24.500Z,11.21
2018-05-10T04:04:02.695Z,10.87
2018-05-10T04:06:40.892Z,10.96
2018-05-10T04:09:19.775Z,11.30
2018-05-10T04:11:45.630Z,11.45
2018-05-10T04:14:11.485Z,11.66
2018-05-10T04:16:37.369Z,11.63
2018-05-10T04:19:03.232Z,11.68
2018-05-10T04:21:29.105Z,11.83
2018-05-10T04:23:54.928Z,11.78
2018-05-10T04:26:20.788Z,11.72
2018-05-10T04:28:46.660Z,11.78
2018-05-10T04:31:12.529Z,11.68
2018-05-10T04:33:38.411Z,11.48
2018-05-10T04:36:04.269Z,11.50
2018-05-10T04:38:30.140Z,11.79
2018-05-10T04:40:55.987Z,11.66
2018-05-10T04:43:21.831Z,11.54
2018-05-10T04:45:47.670Z,11.56
2018-05-10T04:48:13.516Z,11.75
2018-05-10T04:50:39.377Z,11.93
2018-05-10T04:53:05.276Z,11.81
2018-05-10T04:55:31.149Z,11.90
2018-05-10T04:57:56.985Z,11.38
2018-05-10T05:00:22.802Z,11.13
2018-05-10T05:02:48.657Z,11.63
2018-05-10T05:05:14.548Z,11.52
2018-05-10T05:07:40.423Z,11.51
2018-05-10T05:10:06.299Z,11.79
2018-05-10T05:12:32.165Z,11.92
2018-05-10T05:14:58.022Z,11.91
2018-05-10T05:17:23.873Z,12.29
2018-05-10T05:19:49.713Z,12.44
2018-05-10T05:22:15.568Z,12.41
2018-05-10T05:24:41.429Z,12.63
2018-05-10T05:27:07.285Z,13.03
2018-05-10T05:29:33.122Z,13.30
2018-05-10T05:31:58.987Z,13.41
2018-05-10T05:34:24.822Z,13.24
2018-05-10T05:36:50.692Z,13.48
2018-05-10T05:39:16.501Z,13.71
2018-05-10T05:41:42.360Z,13.91
2018-05-10T05:44:08.225Z,14.07
2018-05-10T05:46:34.078Z,14.15
2018-05-10T05:48:59.905Z,14.33
2018-05-10T05:51:25.839Z,14.38
2018-05-10T05:53:51.698Z,14.39
2018-05-10T05:56:17.552Z,14.35
2018-05-10T05:58:43.442Z,14.43
2018-05-10T06:01:09.305Z,14.59
2018-05-10T06:03:35.181Z,14.87
2018-05-10T06:06:01.030Z,15.34
2018-05-10T06:08:26.902Z,15.21
2018-05-10T06:10:52.729Z,15.47
2018-05-10T06:13:18.576Z,15.60
2018-05-10T06:15:44.414Z,15.33
2018-05-10T06:18:10.270Z,15.57
2018-05-10T06:20:36.162Z,15.72
2018-05-10T06:23:02.018Z,15.97
2018-05-10T06:25:27.881Z,16.33
2018-05-10T06:27:53.738Z,16.73
2018-05-10T06:30:19.585Z,16.90
2018-05-10T06:32:45.426Z,16.83
2018-05-10T06:35:11.312Z,16.90
2018-05-10T06:37:37.173Z,17.22
2018-05-10T06:40:03.037Z,17.34
2018-05-10T06:42:28.875Z,17.60
2018-05-10T06:44:54.748Z,18.01
2018-05-10T06:47:20.570Z,18.08
2018-05-10T06:49:46.405Z,18.12
2018-05-10T06:52:12.249Z,18.00
2018-05-10T06:54:38.100Z,18.05
2018-05-10T06:57:03.981Z,18.35
2018-05-10T06:59:29.834Z,18.45
2018-05-10T07:01:55.674Z,18.42
2018-05-10T07:04:21.525Z,18.68
2018-05-10T07:06:47.391Z,18.79
2018-05-10T07:09:13.262Z,18.63
2018-05-10T07:11:39.092Z,18.67
2018-05-10T07:14:04.920Z,18.72
2018-05-10T07:16:30.769Z,18.82
2018-05-10T07:18:56.632Z,19.22
2018-05-10T07:21:22.569Z,19.02
2018-05-10T07:23:48.409Z,19.17
2018-05-10T07:26:14.264Z,19.26
2018-05-10T07:28:40.158Z,19.63
2018-05-10T07:31:06.055Z,19.89
2018-05-10T07:33:31.931Z,20.24
2018-05-10T07:36:04.944Z,20.74
2018-05-10T07:38:30.840Z,20.55
2018-05-10T07:40:56.768Z,20.90
2018-05-10T07:43:22.631Z,21.15
2018-05-10T07:45:48.527Z,21.78
2018-05-10T07:48:14.391Z,21.92
2018-05-10T07:50:40.262Z,21.63
2018-05-10T07:53:06.120Z,21.62
2018-05-10T07:55:31.952Z,21.94
2018-05-10T07:57:57.804Z,22.05
2018-05-10T08:00:23.685Z,22.26
2018-05-10T08:02:49.556Z,21.94
2018-05-10T08:05:15.428Z,22.08
2018-05-10T08:07:41.310Z,22.45
2018-05-10T08:10:07.204Z,22.58
2018-05-10T08:12:33.029Z,22.40
2018-05-10T08:14:58.873Z,22.80
2018-05-10T08:17:24.748Z,22.60
2018-05-10T08:19:50.572Z,22.77
2018-05-10T08:22:16.455Z,22.82
2018-05-10T08:24:42.306Z,22.91
2018-05-10T08:27:08.185Z,22.77
2018-05-10T08:29:34.109Z,22.58
2018-05-10T08:31:59.933Z,22.30
2018-05-10T08:34:25.806Z,22.68
2018-05-10T08:36:51.782Z,22.56
2018-05-10T08:39:17.597Z,23.28
2018-05-10T08:41:43.488Z,22.93
2018-05-10T08:44:09.381Z,22.78
2018-05-10T08:46:35.245Z,22.65
2018-05-10T08:49:01.097Z,22.64
2018-05-10T08:51:26.910Z,23.04
2018-05-10T08:53:52.768Z,23.04
2018-05-10T08:56:18.618Z,22.90
2018-05-10T08:58:44.461Z,23.17
2018-05-10T09:01:10.358Z,23.02
2018-05-10T09:03:36.188Z,23.26
2018-05-10T09:06:02.040Z,23.30
2018-05-10T09:08:27.888Z,23.48
2018-05-10T09:10:53.737Z,23.81
2018-05-10T09:13:19.597Z,24.29
2018-05-10T09:15:45.487Z,24.12
2018-05-10T09:18:11.349Z,24.18
2018-05-10T09:20:37.209Z,23.63
2018-05-10T09:23:03.064Z,23.71
2018-05-10T09:25:28.917Z,23.66
2018-05-10T09:27:54.849Z,23.69
2018-05-10T09:30:20.796Z,24.19
2018-05-10T09:32:46.648Z,24.41
2018-05-10T09:35:12.522Z,23.97
2018-05-10T09:37:38.384Z,24.07
2018-05-10T09:40:04.241Z,24.43
2018-05-10T09:42:30.085Z,24.71
2018-05-10T09:44:55.944Z,25.17
2018-05-10T09:47:21.811Z,25.13
2018-05-10T09:49:47.704Z,24.76
2018-05-10T09:52:13.600Z,24.88
2018-05-10T09:54:39.438Z,25.05
2018-05-10T09:57:05.276Z,24.69
2018-05-10T09:59:31.096Z,24.42
2018-05-10T10:01:56.942Z,24.21
2018-05-10T10:04:22.808Z,24.28
2018-05-10T10:06:48.700Z,24.19
2018-05-10T10:09:14.572Z,23.40
2018-05-10T10:11:40.464Z,23.15
2018-05-10T10:14:06.250Z,23.36
2018-05-10T10:16:32.125Z,23.98
2018-05-10T10:18:57.996Z,24.23
2018-05-10T10:21:23.832Z,24.61
2018-05-10T10:23:49.693Z,24.33
2018-05-10T10:26:15.506Z,24.24
2018-05-10T10:28:41.356Z,24.01
2018-05-10T10:31:07.181Z,23.68
2018-05-10T10:33:33.037Z,23.69
2018-05-10T10:35:58.861Z,24.10
2018-05-10T10:38:24.752Z,24.17
2018-05-10T10:40:50.651Z,24.49
2018-05-10T10:43:16.592Z,24.54
2018-05-10T10:45:42.456Z,24.53
2018-05-10T10:48:08.283Z,24.56
2018-05-10T10:50:34.160Z,24.69
2018-05-10T10:53:00.097Z,24.49
2018-05-10T10:55:25.901Z,24.60
2018-05-10T10:57:51.754Z,24.44
2018-05-10T11:00:17.651Z,24.17
2018-05-10T11:02:43.517Z,24.95
2018-05-10T11:05:09.448Z,25.26
2018-05-10T11:07:35.313Z,25.79
2018-05-10T11:10:01.170Z,26.22
2018-05-10T11:12:27.026Z,26.79
2018-05-10T11:14:52.899Z,26.80
2018-05-10T11:17:18.748Z,25.96
2018-05-10T11:19:44.605Z,26.05
2018-05-10T11:22:10.463Z,25.75
2018-05-10T11:24:36.352Z,26.03
2018-05-10T11:27:02.225Z,26.15
2018-05-10T11:29:28.135Z,26.47
2018-05-10T11:31:54.316Z,27.14
2018-05-10T11:34:20.237Z,26.57
2018-05-10T11:36:46.100Z,26.74
2018-05-10T11:39:11.983Z,26.36
2018-05-10T11:41:37.795Z,26.62
2018-05-10T11:44:03.627Z,26.89
2018-05-10T11:46:29.484Z,26.35
2018-05-10T11:48:55.340Z,25.84
2018-05-10T11:51:21.203Z,26.32
2018-05-10T11:53:47.122Z,26.92
2018-05-10T11:56:13.013Z,27.49
2018-05-10T11:58:38.868Z,27.70
2018-05-10T12:01:04.757Z,27.12
2018-05-10T12:03:30.604Z,26.79
2018-05-10T12:05:56.505Z,26.44
2018-05-10T12:08:22.385Z,26.60
2018-05-10T12:10:48.237Z,26.27
2018-05-10T12:13:14.112Z,26.84
2018-05-10T12:15:39.977Z,27.14
2018-05-10T12:18:05.955Z,27.21
2018-05-10T12:20:31.833Z,27.59
2018-05-10T12:22:57.693Z,28.18
2018-05-10T12:25:23.542Z,26.95
2018-05-10T12:27:49.393Z,26.36
2018-05-10T12:30:15.909Z,26.32
2018-05-10T12:32:41.771Z,25.82
2018-05-10T12:35:07.625Z,25.86
2018-05-10T12:37:33.498Z,27.08
2018-05-10T12:39:59.371Z,27.78
2018-05-10T12:42:25.185Z,27.66
2018-05-10T12:44:51.082Z,27.17
2018-05-10T12:47:16.925Z,27.25
2018-05-10T12:49:42.792Z,26.44
2018-05-10T12:52:08.648Z,26.14
2018-05-10T12:54:34.485Z,25.96
2018-05-10T12:57:00.381Z,25.95
2018-05-10T12:59:26.245Z,25.81
2018-05-10T13:01:52.128Z,25.84
2018-05-10T13:04:17.957Z,25.74
2018-05-10T13:06:43.910Z,25.81
2018-05-10T13:09:09.696Z,25.95
2018-05-10T13:11:35.587Z,25.41
2018-05-10T13:14:01.460Z,25.52
2018-05-10T13:16:27.324Z,25.30
2018-05-10T13:18:53.180Z,25.12
2018-05-10T13:21:19.052Z,25.16
2018-05-10T13:23:51.794Z,24.67
2018-05-10T13:26:17.641Z,24.77
2018-05-10T13:28:43.541Z,24.48
2018-05-10T13:31:09.422Z,23.88
2018-05-10T13:33:35.297Z,23.64
2018-05-10T13:36:01.169Z,23.30
2018-05-10T13:38:27.184Z,21.94
2018-05-10T13:40:52.953Z,20.57
2018-05-10T13:43:18.881Z,19.68
2018-05-10T13:45:44.726Z,19.21
2018-05-10T13:48:10.611Z,18.89
2018-05-10T13:50:36.461Z,18.56
2018-05-10T13:53:02.347Z,17.97
2018-05-10T13:55:28.176Z,17.65
2018-05-10T13:57:54.049Z,17.13
2018-05-10T14:00:19.913Z,16.78
2018-05-10T14:02:45.750Z,16.45
2018-05-10T14:05:11.604Z,16.10
2018-05-10T14:07:37.451Z,15.92
2018-05-10T14:10:03.453Z,15.92
2018-05-10T14:12:29.348Z,16.20
2018-05-10T14:14:55.197Z,16.31
2018-05-10T14:17:21.051Z,16.65
2018-05-10T14:19:46.900Z,17.01
2018-05-10T14:22:12.745Z,17.79
2018-05-10T14:24:38.668Z,17.82
2018-05-10T14:27:04.554Z,17.40
2018-05-10T14:29:30.496Z,17.44
2018-05-10T14:31:56.368Z,17.46
2018-05-10T14:34:22.244Z,17.49
2018-05-10T14:36:48.127Z,17.62
2018-05-10T14:39:13.990Z,17.39
2018-05-10T14:41:39.856Z,17.18
2018-05-10T14:44:05.701Z,17.49
2018-05-10T14:46:31.683Z,17.76
2018-05-10T14:48:57.639Z,17.94
2018-05-10T14:51:23.473Z,17.92
2018-05-10T14:53:49.334Z,17.86
2018-05-10T14:56:15.195Z,17.96
2018-05-10T14:58:41.045Z,18.12
2018-05-10T15:01:06.913Z,18.59
2018-05-10T15:03:32.793Z,18.63
2018-05-10T15:05:58.661Z,19.04
2018-05-10T15:08:24.517Z,19.54
2018-05-10T15:10:50.374Z,19.76
2018-05-10T15:13:16.226Z,19.78
2018-05-10T15:15:42.123Z,19.66
2018-05-10T15:18:07.969Z,19.17
2018-05-10T15:20:33.841Z,18.46
2018-05-10T15:22:59.696Z,17.95
2018-05-10T15:25:25.546Z,18.30
2018-05-10T15:27:51.398Z,18.96
2018-05-10T15:30:17.340Z,19.12
2018-05-10T15:32:43.193Z,18.95
2018-05-10T15:35:09.062Z,19.11
2018-05-10T15:37:34.894Z,18.79
2018-05-10T15:40:00.801Z,18.46
2018-05-10T15:42:26.703Z,18.59
2018-05-10T15:44:52.593Z,18.52
2018-05-10T15:47:18.458Z,18.27
2018-05-10T15:49:44.491Z,18.16
2018-05-10T15:52:10.242Z,17.77
2018-05-10T15:54:36.080Z,17.81
2018-05-10T15:57:01.969Z,17.91
2018-05-10T15:59:27.880Z,17.82
2018-05-10T16:01:53.938Z,17.81
2018-05-10T16:04:19.827Z,17.70
2018-05-10T16:06:45.749Z,17.69
2018-05-10T16:09:11.527Z,17.61
2018-05-10T16:11:37.359Z,17.63
2018-05-10T16:14:03.253Z,17.70
2018-05-10T16:16:29.117Z,17.79
2018-05-10T16:18:54.973Z,17.77
2018-05-10T16:21:20.847Z,17.27
2018-05-10T16:23:46.754Z,17.08
2018-05-10T16:26:12.626Z,17.59
2018-05-10T16:28:38.496Z,17.49
2018-05-10T16:31:04.517Z,17.72
2018-05-10T16:33:30.420Z,17.72
2018-05-10T16:35:56.228Z,17.96
2018-05-10T16:38:22.088Z,17.67
2018-05-10T16:40:48.020Z,17.62
2018-05-10T16:43:13.937Z,17.68
2018-05-10T16:45:40.867Z,17.66
2018-05-10T16:48:06.815Z,17.68
2018-05-10T16:50:32.678Z,17.75
2018-05-10T16:52:58.543Z,17.66
2018-05-10T16:55:24.422Z,17.47
2018-05-10T16:57:50.307Z,17.79
2018-05-10T17:00:16.177Z,17.89
2018-05-10T17:02:42.053Z,18.04
2018-05-10T17:05:07.925Z,17.82
2018-05-10T17:07:33.807Z,17.54
2018-05-10T17:09:59.670Z,17.16
2018-05-10T17:12:25.544Z,16.86
2018-05-10T17:14:51.390Z,17.05
2018-05-10T17:17:17.253Z,17.08
2018-05-10T17:19:43.090Z,17.39
2018-05-10T17:22:08.945Z,17.59
2018-05-10T17:24:34.845Z,17.77
2018-05-10T17:27:00.706Z,17.83
2018-05-10T17:29:26.597Z,17.86
2018-05-10T17:31:52.441Z,17.85
2018-05-10T17:34:18.302Z,17.80
2018-05-10T17:36:44.166Z,17.54
2018-05-10T17:39:10.028Z,17.61
2018-05-10T17:41:35.995Z,17.34
2018-05-10T17:44:01.800Z,17.51
2018-05-10T17:46:27.713Z,17.77
2018-05-10T17:48:53.576Z,17.91
2018-05-10T17:51:19.449Z,17.92
2018-05-10T17:53:45.321Z,17.87
2018-05-10T17:56:11.220Z,17.39
2018-05-10T17:58:37.072Z,17.17
2018-05-10T18:01:03.001Z,17.07
2018-05-10T18:03:28.871Z,17.21
2018-05-10T18:05:54.769Z,17.48
2018-05-10T18:08:20.629Z,17.48
2018-05-10T18:10:46.532Z,17.42
2018-05-10T18:13:12.418Z,17.33
2018-05-10T18:15:38.315Z,17.24
2018-05-10T18:18:04.215Z,17.19
2018-05-10T18:20:30.082Z,16.97
2018-05-10T18:22:56.005Z,16.82
2018-05-10T18:25:21.886Z,16.60
2018-05-10T18:27:47.799Z,16.51
2018-05-10T18:30:13.676Z,16.47
2018-05-10T18:32:39.553Z,16.34
2018-05-10T18:35:05.430Z,16.29
2018-05-10T18:37:31.334Z,16.19
2018-05-10T18:39:57.185Z,16.27
2018-05-10T18:42:23.073Z,16.14
2018-05-10T18:44:48.989Z,16.16
2018-05-10T18:47:14.878Z,15.90
2018-05-10T18:49:40.725Z,16.01
2018-05-10T18:52:06.573Z,16.20
2018-05-10T18:54:32.540Z,16.20
2018-05-10T18:56:58.398Z,16.18
2018-05-10T18:59:24.256Z,16.17
2018-05-10T19:01:50.234Z,16.13
2018-05-10T19:04:16.047Z,16.08
2018-05-10T19:06:41.942Z,16.00
2018-05-10T19:09:07.837Z,15.94
2018-05-10T19:11:33.753Z,16.00
2018-05-10T19:13:59.617Z,15.92
2018-05-10T19:16:25.498Z,15.84
2018-05-10T19:18:51.367Z,15.73
2018-05-10T19:21:17.292Z,15.67
2018-05-10T19:23:43.164Z,15.65
2018-05-10T19:26:09.043Z,15.64
2018-05-10T19:28:35.025Z,15.65
2018-05-10T19:31:00.948Z,15.64
2018-05-10T19:33:26.833Z,15.58
2018-05-10T19:35:52.709Z,15.60
2018-05-10T19:38:18.573Z,15.51
2018-05-10T19:40:44.463Z,15.39
2018-05-10T19:43:10.308Z,15.48
2018-05-10T19:45:36.246Z,15.53
2018-05-10T19:48:02.141Z,15.47
2018-05-10T19:50:28.010Z,15.39
2018-05-10T19:52:53.876Z,15.34
2018-05-10T19:55:19.754Z,15.25
2018-05-10T19:57:45.644Z,15.20
2018-05-10T20:00:11.543Z,15.19
2018-05-10T20:02:37.411Z,15.08
2018-05-10T20:05:03.338Z,15.10
2018-05-10T20:07:29.206Z,15.17
2018-05-10T20:09:55.062Z,15.25
2018-05-10T20:12:20.940Z,15.05
2018-05-10T20:14:46.793Z,14.70
2018-05-10T20:17:12.681Z,14.49
2018-05-10T20:19:38.549Z,14.53
2018-05-10T20:22:04.426Z,14.78
2018-05-10T20:24:30.322Z,14.64
2018-05-10T20:26:56.354Z,14.68
2018-05-10T20:29:22.262Z,14.87
2018-05-10T20:31:48.177Z,15.18
2018-05-10T20:34:14.030Z,15.33
2018-05-10T20:36:39.920Z,15.41
2018-05-10T20:39:05.842Z,15.42
2018-05-10T20:41:31.732Z,15.39
2018-05-10T20:43:57.621Z,15.27
2018-05-10T20:46:23.503Z,15.16
2018-05-10T20:48:49.403Z,15.21
2018-05-10T20:51:15.301Z,15.02
2018-05-10T20:53:41.174Z,15.19
2018-05-10T20:56:07.046Z,15.34
2018-05-10T20:58:33.033Z,15.42
2018-05-10T21:01:00.008Z,15.46
2018-05-10T21:03:25.902Z,15.61
2018-05-10T21:05:51.789Z,15.63
2018-05-10T21:08:17.700Z,15.69
2018-05-10T21:10:43.581Z,15.66
2018-05-10T21:13:09.510Z,15.66
2018-05-10T21:15:35.413Z,15.60
2018-05-10T21:18:01.286Z,15.38
2018-05-10T21:20:27.150Z,15.52
2018-05-10T21:22:53.026Z,15.38
2018-05-10T21:25:19.017Z,15.25
2018-05-10T21:27:44.889Z,15.33
2018-05-10T21:30:10.826Z,15.36
2018-05-10T21:32:36.705Z,15.25
2018-05-10T21:35:02.637Z,15.40
2018-05-10T21:37:28.606Z,15.49
2018-05-10T21:39:54.449Z,15.54
2018-05-10T21:42:20.300Z,15.48
2018-05-10T21:44:46.238Z,15.48
2018-05-10T21:47:12.050Z,15.41
2018-05-10T21:49:50.358Z,15.41
2018-05-10T21:52:16.281Z,15.36
2018-05-10T21:54:42.176Z,15.23
2018-05-10T21:57:08.042Z,15.25
2018-05-10T21:59:33.942Z,15.21
2018-05-10T22:01:59.839Z,15.12
2018-05-10T22:04:25.758Z,15.09
2018-05-10T22:06:51.649Z,15.05
2018-05-10T22:09:17.557Z,14.94
2018-05-10T22:11:43.405Z,14.97
2018-05-10T22:14:09.276Z,14.88
2018-05-10T22:16:35.291Z,14.83
2018-05-10T22:19:01.292Z,14.76
2018-05-10T22:21:27.138Z,14.73
2018-05-10T22:23:53.024Z,14.59
2018-05-10T22:26:18.947Z,14.61
2018-05-10T22:28:44.817Z,14.57
2018-05-10T22:31:10.676Z,14.49
2018-05-10T22:33:36.569Z,14.55
2018-05-10T22:36:02.421Z,14.58
2018-05-10T22:38:28.252Z,14.58
2018-05-10T22:40:54.090Z,14.54
2018-05-10T22:43:19.965Z,14.47
2018-05-10T22:45:45.837Z,14.28
2018-05-10T22:48:11.713Z,14.13
2018-05-10T22:50:37.588Z,14.15
2018-05-10T22:53:03.433Z,14.04
2018-05-10T22:55:29.296Z,13.82
2018-05-10T22:57:55.196Z,13.79
2018-05-10T23:00:21.077Z,13.58
2018-05-10T23:02:46.941Z,13.47
2018-05-10T23:05:12.829Z,13.40
2018-05-10T23:07:38.670Z,13.33
2018-05-10T23:10:04.525Z,13.31
2018-05-10T23:12:30.373Z,13.22
2018-05-10T23:14:56.224Z,13.08
2018-05-10T23:17:22.196Z,13.00
2018-05-10T23:19:48.041Z,12.99
2018-05-10T23:22:13.897Z,12.96
2018-05-10T23:24:39.758Z,13.02
2018-05-10T23:27:05.637Z,13.02
2018-05-10T23:29:31.563Z,13.08
2018-05-10T23:31:57.398Z,13.13
2018-05-10T23:34:23.275Z,13.03
2018-05-10T23:36:49.092Z,12.81
2018-05-10T23:39:14.970Z,13.03
2018-05-10T23:41:40.813Z,12.92
2018-05-10T23:44:06.725Z,13.08
2018-05-10T23:46:32.555Z,13.00
2018-05-10T23:48:58.432Z,12.96
2018-05-10T23:51:24.304Z,12.91
2018-05-10T23:53:50.194Z,12.84
2018-05-10T23:56:16.051Z,12.83
2018-05-10T23:58:41.897Z,12.89
